Time;durP1;ratioP1;P1;durP2;ratioP2;P2;SDS_P1;SDS_P2;PMS_P1;PMS_P2;Temp;Humidity;BMP_temperature;BMP_pressure;BME280_temperature;BME280_humidity;BME280_pressure;Samples;Min_cycle;Max_cycle;Signal;HPM_P1;HPM_P2
2023/02/11 00:01:26;;;;;;;19.33;10.67;;;0.90;68.80;;;4.51;44.23;99572.63;5034113;28;20527;-44
2023/02/11 00:03:54;;;;;;;19.90;10.20;;;0.90;69.20;;;4.51;44.52;99577.91;5033497;28;20092;-45
2023/02/11 00:06:24;;;;;;;17.30;10.00;;;0.90;69.40;;;4.52;44.65;99575.22;5033854;28;20432;-46
2023/02/11 00:08:51;;;;;;;17.33;9.73;;;0.90;69.80;;;4.53;44.60;99573.41;5033697;28;20068;-46
2023/02/11 00:11:24;;;;;;;20.67;9.50;;;1.00;69.60;;;4.54;44.63;99572.50;5033890;28;20050;-45
2023/02/11 00:13:51;;;;;;;14.17;8.77;;;1.00;69.60;;;4.55;44.94;99579.47;5033450;28;20093;-44
2023/02/11 00:16:20;;;;;;;17.87;9.87;;;1.00;69.40;;;4.55;45.02;99574.19;5033918;28;20045;-44
2023/02/11 00:18:49;;;;;;;17.70;9.37;;;1.00;69.60;;;4.53;44.81;99566.34;5032333;28;20049;-47
2023/02/11 00:21:22;;;;;;;14.67;8.13;;;1.00;69.60;;;4.53;44.74;99571.63;5033574;28;20045;-45
2023/02/11 00:23:50;;;;;;;15.93;9.85;;;1.00;69.80;;;4.53;44.91;99571.63;5033522;28;20049;-46
2023/02/11 00:26:28;;;;;;;15.17;9.07;;;1.00;70.00;;;4.53;45.20;99560.22;5033619;28;20390;-46
2023/02/11 00:28:56;;;;;;;16.37;8.40;;;1.00;70.10;;;4.53;44.84;99557.59;5031433;28;20061;-45
2023/02/11 00:31:25;;;;;;;15.47;8.43;;;1.00;70.50;;;4.54;45.29;99565.44;5032267;28;20108;-44
2023/02/11 00:33:53;;;;;;;15.67;8.27;;;1.00;70.70;;;4.54;45.33;99561.94;5031481;28;20072;-46
2023/02/11 00:36:25;;;;;;;17.03;9.60;;;1.00;70.70;;;4.56;45.29;99560.09;5031433;28;20047;-45
2023/02/11 00:38:54;;;;;;;13.60;7.90;;;1.00;70.70;;;4.60;45.12;99566.06;5014906;28;20548;-44
2023/02/11 00:41:23;;;;;;;14.83;9.30;;;1.00;70.50;;;4.60;45.50;99568.69;5031962;28;20057;-45
2023/02/11 00:43:51;;;;;;;18.07;10.37;;;1.10;70.70;;;4.62;45.57;99567.69;5031212;28;20061;-46
2023/02/11 00:46:19;;;;;;;12.77;7.93;;;1.10;70.50;;;4.62;44.94;99559.78;5033024;28;20492;-46
2023/02/11 00:48:47;;;;;;;14.47;9.00;;;1.10;70.40;;;4.63;45.02;99568.53;5015423;28;20504;-44
2023/02/11 00:51:15;;;;;;;15.17;8.83;;;1.10;70.30;;;4.65;45.52;99572.81;5031715;28;20053;-45
2023/02/11 00:53:43;;;;;;;13.50;8.53;;;1.10;70.30;;;4.65;45.20;99578.09;5032755;28;20034;-45
2023/02/11 00:56:10;;;;;;;17.63;9.87;;;1.10;70.20;;;4.67;44.88;99572.72;5032484;28;20343;-46
2023/02/11 00:58:38;;;;;;;16.87;9.87;;;1.10;70.10;;;4.63;45.00;99572.00;5031575;28;20061;-44
2023/02/11 01:01:06;;;;;;;14.00;8.83;;;1.10;70.30;;;4.60;45.38;99553.72;5031195;28;20056;-47
2023/02/11 01:03:34;;;;;;;15.37;8.20;;;1.00;70.40;;;4.59;45.35;99554.63;5032713;28;20049;-44
2023/02/11 01:06:02;;;;;;;14.37;9.03;;;1.00;70.50;;;4.58;45.13;99549.47;5032842;28;20037;-45
2023/02/11 01:08:30;;;;;;;13.13;8.97;;;1.00;70.70;;;4.54;45.66;99551.41;5030945;28;20056;-45
2023/02/11 01:11:05;;;;;;;14.37;8.20;;;1.00;70.80;;;4.53;45.14;99539.97;5032581;28;20417;-45
2023/02/11 01:13:36;;;;;;;15.27;8.03;;;0.90;70.90;;;4.53;45.10;99545.25;5032487;28;20041;-45
2023/02/11 01:16:06;;;;;;;14.77;8.67;;;0.90;70.80;;;4.53;45.25;99539.97;5030979;28;20045;-44
2023/02/11 01:18:35;;;;;;;15.50;9.13;;;0.90;70.90;;;4.50;45.14;99537.50;5032763;28;20421;-47
2023/02/11 01:21:03;;;;;;;14.10;8.50;;;0.90;71.20;;;4.49;45.56;99535.78;5030192;28;20057;-45
2023/02/11 01:23:31;;;;;;;14.03;9.23;;;0.90;71.40;;;4.48;45.44;99530.59;5032098;28;20049;-45
2023/02/11 01:25:58;;;;;;;14.77;7.57;;;0.80;71.80;;;4.48;45.50;99523.53;5032625;28;20049;-47
2023/02/11 01:28:30;;;;;;;15.27;8.60;;;0.90;72.10;;;4.51;45.88;99528.63;5032398;28;20042;-44
2023/02/11 01:31:01;;;;;;;14.17;8.87;;;0.90;71.80;;;4.53;45.68;99521.50;5030883;28;20045;-48
2023/02/11 01:33:29;;;;;;;12.97;8.17;;;0.90;71.60;;;4.53;45.33;99513.59;5031743;28;20041;-46
2023/02/11 01:36:03;;;;;;;13.13;8.20;;;1.00;71.50;;;4.54;45.48;99519.75;5030822;28;20056;-45
2023/02/11 01:38:32;;;;;;;16.05;8.27;;;1.00;71.60;;;4.56;45.74;99520.50;5032142;28;20089;-47
2023/02/11 01:41:05;;;;;;;12.07;7.73;;;1.00;71.40;;;4.59;45.35;99517.69;5031869;28;20412;-47
2023/02/11 01:43:37;;;;;;;11.68;7.43;;;1.00;71.80;;;4.61;45.46;99518.47;5030252;28;20057;-48
2023/02/11 01:46:31;;;;;;;17.93;8.17;;;1.00;71.30;;;4.61;45.49;99518.47;5030520;28;20045;-47
2023/02/11 01:49:13;;;;;;;14.70;7.80;;;1.10;71.40;;;4.64;45.45;99520.97;5030953;28;20058;-47
2023/02/11 01:52:09;;;;;;;11.93;7.07;;;1.10;71.40;;;4.65;45.54;99525.34;5030766;28;20045;-44
2023/02/11 01:57:34;;;;;;;13.17;7.40;;;1.10;71.00;;;4.64;45.94;99523.59;5012355;28;20061;-47
2023/02/11 02:00:23;;;;;;;13.23;8.20;;;1.10;71.10;;;4.60;45.69;99519.44;5014014;28;20504;-46
2023/02/11 02:02:59;;;;;;;13.77;7.30;;;1.10;71.30;;;4.59;45.86;99522.97;5031155;28;20407;-47
2023/02/11 02:05:47;;;;;;;15.03;8.43;;;1.00;71.10;;;4.52;45.94;99522.44;5031183;28;20428;-47
2023/02/11 02:08:37;;;;;;;13.17;7.30;;;0.90;71.20;;;4.47;45.72;99519.19;5023540;28;20531;-46
2023/02/11 02:11:05;;;;;;;12.23;7.20;;;0.80;71.60;;;4.43;45.63;99508.88;5030102;28;20045;-45
2023/02/11 02:13:34;;;;;;;13.13;7.67;;;0.80;71.80;;;4.41;45.51;99511.56;5030255;28;20041;-48
2023/02/11 02:16:06;;;;;;;13.63;7.67;;;0.70;72.80;;;4.38;46.20;99503.84;5030200;28;20057;-45
2023/02/11 02:19:13;;;;;;;12.50;8.33;;;0.70;71.90;;;4.33;45.77;99505.84;5030455;28;20428;-45
2023/02/11 02:22:31;;;;;;;12.60;6.43;;;0.70;72.10;;;4.27;45.68;99501.72;5025840;28;20064;-46
2023/02/11 02:25:52;;;;;;;12.00;7.73;;;0.70;72.80;;;4.22;45.83;99501.09;5030381;28;20050;-45
2023/02/11 02:29:08;;;;;;;12.80;7.43;;;0.70;72.90;;;4.17;45.90;99502.22;5024762;28;20049;-46
2023/02/11 02:31:46;;;;;;;11.80;7.67;;;0.60;73.00;;;4.18;45.74;99496.91;5025972;28;20045;-46
2023/02/11 02:34:47;;;;;;;12.87;7.30;;;0.60;73.00;;;4.16;46.12;99503.19;5023633;28;20045;-47
2023/02/11 02:37:32;;;;;;;11.90;7.20;;;0.60;72.70;;;4.12;45.99;99494.56;5023776;28;20048;-44
2023/02/11 02:40:08;;;;;;;14.87;8.00;;;0.40;73.00;;;4.08;46.16;99491.22;5029968;28;20520;-49
2023/02/11 02:42:38;;;;;;;12.60;7.43;;;0.40;73.60;;;4.07;46.03;99486.91;5013652;28;20068;-47
2023/02/11 02:45:09;;;;;;;11.43;7.47;;;0.40;73.30;;;4.04;46.29;99483.56;5030085;28;20049;-44
2023/02/11 02:47:36;;;;;;;14.50;7.97;;;0.40;73.70;;;4.04;46.11;99470.38;5022182;28;20056;-45
2023/02/11 02:50:06;;;;;;;14.17;7.40;;;0.30;73.40;;;3.96;46.52;99464.63;5030925;28;20513;-48
2023/02/11 02:52:48;;;;;;;14.97;8.10;;;0.20;74.00;;;3.93;46.10;99466.47;5029157;28;20037;-46
2023/02/11 02:55:49;;;;;;;11.67;7.90;;;0.20;74.40;;;3.86;46.69;99469.50;5023798;28;20049;-44
2023/02/11 02:59:17;;;;;;;11.97;6.97;;;0.30;74.70;;;3.85;46.39;99467.78;5022269;28;20501;-45
2023/02/11 03:02:21;;;;;;;10.07;6.37;;;0.30;75.20;;;3.85;46.00;99459.88;5026855;28;20053;-45
2023/02/11 03:05:27;;;;;;;13.07;7.97;;;0.30;74.70;;;3.85;46.39;99460.72;5027934;28;20497;-45
2023/02/11 03:08:13;;;;;;;14.97;7.63;;;0.30;74.90;;;3.86;46.40;99457.16;5030315;28;20041;-46
2023/02/11 03:10:46;;;;;;;14.93;8.73;;;0.30;75.10;;;3.88;46.85;99428.13;5029597;28;20420;-45
2023/02/11 03:13:18;;;;;;;10.70;6.50;;;0.30;75.30;;;3.89;46.83;99428.00;5021732;28;20041;-48
2023/02/11 03:15:51;;;;;;;8.53;5.90;;;0.30;76.20;;;3.97;47.13;99439.97;5030074;28;20068;-47
2023/02/11 03:18:24;;;;;;;9.02;5.90;;;0.40;76.20;;;4.04;47.29;99426.41;5022624;28;20421;-45
2023/02/11 03:20:55;;;;;;;11.90;6.37;;;0.50;76.00;;;4.06;47.27;99423.72;5029699;28;20045;-46
2023/02/11 03:23:46;;;;;;;8.27;5.17;;;0.50;76.20;;;4.06;47.18;99428.97;5028396;28;20045;-45
2023/02/11 03:26:29;;;;;;;9.37;6.00;;;0.50;76.00;;;4.13;47.14;99427.75;5022025;28;20388;-44
2023/02/11 03:29:11;;;;;;;11.17;6.73;;;0.70;76.10;;;4.18;46.87;99433.63;5029477;28;20425;-49
2023/02/11 03:31:54;;;;;;;9.83;5.57;;;0.70;76.00;;;4.21;47.08;99433.47;5030566;28;20045;-45
2023/02/11 03:34:45;;;;;;;8.77;6.07;;;0.70;76.10;;;4.18;47.47;99432.78;5023441;28;20049;-44
2023/02/11 03:38:04;;;;;;;9.60;5.33;;;0.80;76.10;;;4.23;47.57;99442.16;5029517;28;20053;-44
2023/02/11 03:40:37;;;;;;;8.93;4.90;;;0.90;76.10;;;4.33;47.51;99451.31;5031882;28;20061;-45
2023/02/11 03:43:25;;;;;;;8.27;4.93;;;1.00;76.00;;;4.39;47.96;99436.97;5029107;28;20049;-47
2023/02/11 03:45:54;;;;;;;9.07;5.57;;;1.00;75.70;;;4.51;47.36;99438.13;5029422;28;20049;-45
2023/02/11 03:48:29;;;;;;;8.43;4.87;;;1.10;75.80;;;4.59;47.95;99440.34;5029487;28;20061;-46
2023/02/11 03:51:02;;;;;;;7.90;5.23;;;1.10;75.50;;;4.67;47.69;99428.47;5029684;28;20515;-45
2023/02/11 03:53:29;;;;;;;7.90;5.83;;;1.20;75.20;;;4.76;47.69;99429.78;5029918;28;20060;-45
2023/02/11 03:56:01;;;;;;;9.80;5.30;;;1.30;74.90;;;4.84;47.53;99424.94;5030504;28;20060;-45
2023/02/11 03:58:29;;;;;;;9.03;6.13;;;1.30;74.40;;;4.89;47.28;99433.47;5029580;28;20443;-46
2023/02/11 04:00:57;;;;;;;9.17;6.30;;;1.40;74.20;;;4.93;47.19;99436.81;5029013;28;20045;-44
2023/02/11 04:03:24;;;;;;;10.00;6.40;;;1.40;74.00;;;5.00;46.69;99443.47;5029916;28;20049;-49
2023/02/11 04:05:53;;;;;;;9.40;5.57;;;1.50;73.80;;;5.04;46.98;99444.13;5030459;28;20054;-45
2023/02/11 04:08:20;;;;;;;9.20;5.33;;;1.50;73.70;;;5.08;47.21;99453.63;5030643;28;20072;-46
2023/02/11 04:10:48;;;;;;;10.47;6.03;;;1.50;73.70;;;5.15;46.91;99462.91;5031010;28;20050;-44
2023/02/11 04:13:15;;;;;;;10.00;6.23;;;1.60;73.40;;;5.21;46.68;99467.00;5021957;28;20054;-48
2023/02/11 04:15:43;;;;;;;10.40;6.40;;;1.70;73.30;;;5.27;46.56;99466.66;5032974;28;20045;-45
2023/02/11 04:18:11;;;;;;;11.73;6.77;;;1.70;73.00;;;5.29;46.61;99470.94;5033036;28;20053;-44
2023/02/11 04:20:39;;;;;;;9.50;6.17;;;1.70;72.80;;;5.33;46.59;99468.97;5034019;28;20045;-44
2023/02/11 04:23:06;;;;;;;10.83;6.93;;;1.70;72.70;;;5.34;46.34;99457.47;5033389;28;20528;-45
2023/02/11 04:25:34;;;;;;;10.63;6.37;;;1.70;72.60;;;5.32;46.70;99454.91;5033516;28;20049;-45
2023/02/11 04:28:02;;;;;;;10.33;6.97;;;1.80;72.50;;;5.35;46.95;99455.69;5033507;28;20057;-45
2023/02/11 04:30:30;;;;;;;12.57;7.37;;;1.70;72.70;;;5.30;46.80;99454.13;5032483;28;20046;-46
2023/02/11 04:32:58;;;;;;;13.07;6.43;;;1.60;72.80;;;5.29;47.03;99449.81;5033036;28;20061;-44
2023/02/11 04:35:25;;;;;;;9.70;6.20;;;1.60;73.00;;;5.28;46.00;99434.88;5033561;28;20064;-47
2023/02/11 04:37:53;;;;;;;9.30;6.17;;;1.60;72.90;;;5.31;46.09;99450.59;5033382;28;20045;-45
2023/02/11 04:40:21;;;;;;;11.40;6.90;;;1.60;73.00;;;5.31;46.63;99447.94;5033238;28;20052;-45
2023/02/11 04:42:48;;;;;;;10.73;6.53;;;1.60;73.10;;;5.32;46.63;99443.50;5033062;28;20071;-48
2023/02/11 04:45:16;;;;;;;9.30;6.07;;;1.60;73.20;;;5.36;46.49;99446.84;5033325;28;20050;-46
2023/02/11 04:47:43;;;;;;;10.83;7.00;;;1.60;73.30;;;5.37;46.33;99448.53;5032355;28;20064;-46
2023/02/11 04:50:11;;;;;;;13.53;7.87;;;1.60;73.00;;;5.36;46.85;99450.31;5033117;28;20516;-45
2023/02/11 04:52:38;;;;;;;9.07;5.73;;;1.70;73.00;;;5.36;47.02;99442.41;5031606;28;20048;-45
2023/02/11 04:55:06;;;;;;;9.47;5.50;;;1.60;72.60;;;5.38;46.25;99442.31;5032922;28;20037;-47
2023/02/11 04:57:34;;;;;;;9.93;6.63;;;1.70;72.90;;;5.39;46.01;99446.66;5031489;28;20053;-46
2023/02/11 05:00:02;;;;;;;8.13;5.77;;;1.70;72.90;;;5.42;46.05;99435.91;5033261;28;20037;-49
2023/02/11 05:02:30;;;;;;;11.57;5.53;;;1.80;72.80;;;5.44;45.95;99442.81;5032623;28;20045;-47
2023/02/11 05:04:57;;;;;;;8.80;4.87;;;1.80;72.80;;;5.48;46.77;99436.41;5032505;28;20057;-51
2023/02/11 05:07:26;;;;;;;8.30;4.77;;;1.80;72.80;;;5.51;46.50;99430.97;5032902;28;20416;-47
2023/02/11 05:09:54;;;;;;;7.53;5.20;;;1.90;72.80;;;5.57;46.81;99421.03;5032687;28;20046;-50
2023/02/11 05:12:21;;;;;;;8.50;5.17;;;1.90;72.70;;;5.61;46.90;99409.34;5032552;28;20033;-46
2023/02/11 05:14:49;;;;;;;8.47;5.73;;;1.90;72.40;;;5.61;46.35;99402.25;5032480;28;20409;-45
2023/02/11 05:17:17;;;;;;;7.53;4.83;;;2.00;72.50;;;5.62;45.80;99397.81;5032387;28;20037;-47
2023/02/11 05:19:44;;;;;;;8.83;5.00;;;2.00;72.40;;;5.62;45.91;99390.75;5032621;28;20033;-47
2023/02/11 05:22:12;;;;;;;6.93;4.80;;;2.00;72.50;;;5.64;46.38;99396.81;5029712;28;20049;-45
2023/02/11 05:24:40;;;;;;;8.17;5.30;;;2.00;72.30;;;5.65;46.70;99393.22;5032077;28;20052;-45
2023/02/11 05:27:07;;;;;;;7.50;4.60;;;2.00;72.30;;;5.65;46.47;99376.50;5032174;28;20042;-46
2023/02/11 05:29:35;;;;;;;7.83;4.40;;;2.00;72.40;;;5.68;45.95;99376.31;5031236;28;20056;-45
2023/02/11 05:32:03;;;;;;;7.53;4.37;;;2.10;72.50;;;5.68;46.17;99374.53;5032173;28;20413;-48
2023/02/11 05:34:30;;;;;;;8.87;4.83;;;2.10;72.40;;;5.67;46.40;99379.91;5032064;28;20046;-45
2023/02/11 05:36:58;;;;;;;9.10;5.03;;;2.10;72.40;;;5.68;46.49;99374.53;5032221;28;20044;-45
2023/02/11 05:39:26;;;;;;;8.77;5.00;;;2.10;72.40;;;5.71;46.54;99382.28;5032322;28;20038;-47
2023/02/11 05:41:53;;;;;;;12.23;5.83;;;2.00;72.40;;;5.72;46.83;99385.81;5032272;28;20053;-47
2023/02/11 05:44:21;;;;;;;9.17;5.80;;;2.00;72.30;;;5.72;46.40;99384.00;5023495;28;20052;-44
2023/02/11 05:46:48;;;;;;;10.30;5.30;;;2.10;72.20;;;5.75;46.26;99398.81;5032598;28;20044;-45
2023/02/11 05:49:17;;;;;;;8.30;5.40;;;2.10;72.10;;;5.79;46.36;99407.44;5032249;28;20057;-47
2023/02/11 05:51:44;;;;;;;8.87;5.83;;;2.20;72.00;;;5.82;46.43;99397.53;5032372;28;20045;-48
2023/02/11 05:54:12;;;;;;;8.73;5.70;;;2.20;71.80;;;5.85;46.32;99401.78;5031776;28;20050;-49
2023/02/11 05:56:40;;;;;;;8.37;5.90;;;2.20;71.70;;;5.86;46.06;99404.34;5030620;28;20042;-45
2023/02/11 05:59:14;;;;;;;9.80;6.27;;;2.30;71.80;;;5.85;46.20;99412.34;5031814;28;20519;-47
2023/02/11 06:01:42;;;;;;;12.00;6.40;;;2.30;71.70;;;5.81;45.88;99413.47;5031835;28;20049;-47
2023/02/11 06:04:09;;;;;;;9.47;5.83;;;2.20;71.60;;;5.79;45.82;99415.34;5031366;28;20413;-46
2023/02/11 06:06:37;;;;;;;9.93;6.10;;;2.10;71.60;;;5.75;45.83;99411.19;5030210;28;20068;-47
2023/02/11 06:09:04;;;;;;;9.73;5.90;;;2.10;71.50;;;5.74;46.31;99407.69;5031552;28;20049;-44
2023/02/11 06:11:33;;;;;;;13.27;7.33;;;2.10;71.70;;;5.74;46.03;99418.28;5031715;28;20254;-45
2023/02/11 06:14:00;;;;;;;12.20;5.97;;;2.10;71.80;;;5.78;45.70;99418.91;5031180;28;20041;-47
2023/02/11 06:16:28;;;;;;;10.33;6.33;;;2.10;71.80;;;5.77;45.98;99425.16;5031299;28;20053;-49
2023/02/11 06:18:56;;;;;;;8.03;6.10;;;2.10;72.00;;;5.76;46.56;99408.47;5031578;28;20044;-52
2023/02/11 06:21:23;;;;;;;11.40;6.20;;;2.10;72.20;;;5.79;45.81;99413.56;5031497;28;20045;-45
2023/02/11 06:24:07;;;;;;;9.47;6.23;;;2.10;72.20;;;5.81;46.35;99401.09;5031038;28;20053;-47
2023/02/11 06:26:34;;;;;;;10.07;6.00;;;2.10;72.30;;;5.83;46.50;99401.88;5029792;28;20053;-50
2023/02/11 06:29:02;;;;;;;12.03;6.60;;;2.20;72.30;;;5.84;45.70;99400.94;5031329;28;20049;-44
2023/02/11 06:31:30;;;;;;;8.17;6.10;;;2.20;72.20;;;5.84;46.42;99405.38;5031376;28;20049;-44
2023/02/11 06:33:58;;;;;;;15.00;6.70;;;2.20;72.10;;;5.86;45.79;99404.34;5031115;28;20044;-45
2023/02/11 06:36:25;;;;;;;11.33;5.57;;;2.10;72.00;;;5.85;46.24;99399.97;5022785;28;20041;-44
2023/02/11 06:38:54;;;;;;;10.13;6.40;;;2.10;72.00;;;5.82;46.30;99401.97;5030801;28;20078;-46
2023/02/11 06:41:22;;;;;;;10.20;6.27;;;2.10;72.20;;;5.82;46.25;99397.53;5030788;28;20049;-47
2023/02/11 06:43:51;;;;;;;10.73;6.90;;;2.10;72.20;;;5.84;46.26;99413.31;5030829;28;20515;-44
2023/02/11 06:46:18;;;;;;;10.87;6.10;;;2.10;72.10;;;5.85;46.31;99407.06;5029777;28;20527;-45
2023/02/11 06:48:46;;;;;;;8.30;5.83;;;2.10;72.30;;;5.86;46.06;99414.06;5031304;28;20049;-50
2023/02/11 06:51:17;;;;;;;7.87;5.20;;;2.20;72.40;;;5.87;46.36;99411.34;5030667;28;20041;-44
2023/02/11 06:53:46;;;;;;;8.37;5.90;;;2.20;72.20;;;5.91;45.95;99418.16;5030670;28;20044;-50
2023/02/11 06:56:20;;;;;;;8.70;5.53;;;2.20;72.20;;;5.93;46.49;99436.56;5029836;28;20058;-45
2023/02/11 06:58:52;;;;;;;8.83;5.63;;;2.30;72.30;;;5.97;45.63;99439.91;5031055;28;20045;-49
2023/02/11 07:01:20;;;;;;;9.30;5.80;;;2.30;72.30;;;5.99;46.35;99422.16;5030824;28;20053;-46
2023/02/11 07:03:49;;;;;;;10.60;6.03;;;2.30;72.10;;;6.01;46.50;99422.91;5030494;28;20281;-47
2023/02/11 07:06:20;;;;;;;9.97;5.83;;;2.30;72.00;;;6.01;45.96;99420.28;5030474;28;20424;-46
2023/02/11 07:08:48;;;;;;;14.53;8.83;;;2.30;72.20;;;5.97;46.00;99414.34;5029444;28;20417;-45
2023/02/11 07:11:24;;;;;;;9.87;7.67;;;2.30;72.40;;;5.99;46.23;99417.75;5029616;28;20057;-45
2023/02/11 07:13:55;;;;;;;14.27;8.90;;;2.30;72.40;;;5.99;46.31;99423.03;5030378;28;20064;-47
2023/02/11 07:16:23;;;;;;;10.87;6.83;;;2.20;72.20;;;5.98;46.09;99423.97;5029198;28;20041;-48
2023/02/11 07:18:50;;;;;;;10.90;7.37;;;2.30;72.50;;;5.98;45.98;99423.13;5030933;28;20045;-44
2023/02/11 07:21:21;;;;;;;12.60;7.60;;;2.30;72.40;;;5.99;45.91;99422.16;5030759;28;20054;-45
2023/02/11 07:23:49;;;;;;;13.57;8.50;;;2.20;72.30;;;5.97;46.06;99424.03;5029545;28;20049;-45
2023/02/11 07:26:24;;;;;;;12.67;7.87;;;2.30;72.50;;;5.99;46.46;99427.44;5029881;28;20567;-44
2023/02/11 07:28:52;;;;;;;14.03;9.67;;;2.30;72.40;;;5.97;46.21;99432.84;5030905;28;20045;-47
2023/02/11 07:31:26;;;;;;;10.20;7.80;;;2.30;72.70;;;5.97;46.65;99438.13;5030430;28;20073;-51
2023/02/11 07:33:58;;;;;;;11.37;7.17;;;2.30;72.70;;;6.01;46.61;99444.94;5030835;28;20064;-44
2023/02/11 07:36:28;;;;;;;9.80;6.93;;;2.30;72.80;;;6.05;46.54;99443.81;5030211;28;20044;-45
2023/02/11 07:38:56;;;;;;;9.43;7.40;;;2.40;72.70;;;6.09;46.31;99444.50;5029225;28;20064;-50
2023/02/11 07:41:25;;;;;;;13.70;8.90;;;2.40;72.70;;;6.14;46.66;99450.34;5030458;28;20041;-46
2023/02/11 07:43:53;;;;;;;12.07;8.57;;;2.50;72.80;;;6.21;46.23;99443.78;5030086;28;20069;-49
2023/02/11 07:46:25;;;;;;;9.80;5.53;;;2.60;72.60;;;6.28;46.17;99431.91;5030433;28;20413;-45
2023/02/11 07:48:53;;;;;;;8.43;5.27;;;2.70;72.60;;;6.34;46.11;99435.13;5030922;28;20038;-50
2023/02/11 07:51:26;;;;;;;7.80;4.40;;;2.70;72.30;;;6.39;45.78;99433.91;5034093;28;20052;-48
2023/02/11 07:53:55;;;;;;;5.47;3.57;;;2.80;72.20;;;6.45;45.80;99438.81;5033927;28;20053;-47
2023/02/11 07:56:24;;;;;;;8.03;4.77;;;2.90;71.80;;;6.47;46.35;99431.66;5034013;28;20041;-48
2023/02/11 07:58:52;;;;;;;11.67;5.60;;;2.90;71.60;;;6.49;45.82;99418.31;5033061;28;20033;-45
2023/02/11 08:01:27;;;;;;;8.13;5.13;;;2.90;71.10;;;6.51;45.55;99413.78;5033962;28;20408;-47
2023/02/11 08:03:57;;;;;;;9.77;5.57;;;2.90;71.30;;;6.52;46.63;99418.16;5032304;28;20041;-47
2023/02/11 08:06:29;;;;;;;8.20;4.93;;;2.90;71.00;;;6.48;45.73;99417.50;5033939;28;20417;-46
2023/02/11 08:08:57;;;;;;;8.27;4.90;;;2.90;71.30;;;6.50;46.34;99420.88;5034036;28;20191;-47
2023/02/11 08:11:27;;;;;;;7.90;5.50;;;2.90;71.40;;;6.53;45.84;99405.78;5032606;28;20489;-45
2023/02/11 08:13:55;;;;;;;8.33;4.83;;;2.90;71.30;;;6.56;45.92;99419.69;5033474;28;20068;-47
2023/02/11 08:16:30;;;;;;;10.10;5.00;;;3.00;71.10;;;6.57;45.96;99410.81;5032051;28;20056;-48
2023/02/11 08:19:01;;;;;;;8.83;5.70;;;3.10;71.00;;;6.58;46.00;99411.66;5033906;28;20045;-46
2023/02/11 08:21:29;;;;;;;8.17;5.20;;;3.10;70.80;;;6.57;45.97;99420.53;5031245;28;20034;-46
2023/02/11 08:23:57;;;;;;;8.83;5.67;;;3.10;70.60;;;6.58;46.09;99423.06;5030442;28;20046;-45
2023/02/11 08:26:28;;;;;;;10.93;6.03;;;3.10;70.60;;;6.60;46.25;99428.28;5033369;28;20045;-50
2023/02/11 08:28:57;;;;;;;9.33;5.27;;;3.10;70.80;;;6.61;46.34;99424.69;5033563;28;20516;-47
2023/02/11 08:31:29;;;;;;;8.87;5.43;;;3.00;70.60;;;6.64;45.69;99424.50;5033381;28;20056;-47
2023/02/11 08:33:57;;;;;;;10.83;6.00;;;3.00;70.90;;;6.66;46.00;99417.31;5033167;28;20069;-45
2023/02/11 08:36:29;;;;;;;9.57;5.90;;;3.10;71.10;;;6.67;46.14;99411.09;5032968;28;20045;-46
2023/02/11 08:39:01;;;;;;;10.03;7.83;;;3.10;71.10;;;6.66;45.98;99422.63;5032289;28;20037;-47
2023/02/11 08:41:52;;;;;;;8.10;5.40;;;3.10;71.40;;;6.70;46.47;99418.84;5027598;28;20041;-49
2023/02/11 08:44:21;;;;;;;8.70;5.30;;;3.20;71.40;;;6.72;45.92;99411.66;5032676;28;20041;-48
2023/02/11 08:46:50;;;;;;;6.43;4.57;;;3.20;71.40;;;6.78;45.75;99418.38;5033079;28;20041;-48
2023/02/11 08:49:19;;;;;;;6.40;4.90;;;3.20;71.30;;;6.81;46.64;99416.38;5033285;28;20052;-48
2023/02/11 08:51:47;;;;;;;7.37;5.17;;;3.30;71.50;;;6.89;46.47;99414.13;5031914;28;20048;-48
2023/02/11 08:54:15;;;;;;;8.67;5.20;;;3.40;71.40;;;6.98;46.09;99411.84;5032414;28;20052;-47
2023/02/11 08:56:42;;;;;;;5.97;4.20;;;3.50;71.20;;;7.05;46.10;99418.47;5032810;28;20048;-50
2023/02/11 08:59:13;;;;;;;8.37;4.77;;;3.60;71.10;;;7.12;45.96;99422.44;5032832;28;20038;-47
2023/02/11 09:01:42;;;;;;;8.30;4.67;;;3.60;70.90;;;7.13;45.99;99421.47;5032145;28;20049;-45
2023/02/11 09:04:10;;;;;;;7.80;4.60;;;3.70;70.60;;;7.17;46.08;99427.44;5032371;28;20046;-45
2023/02/11 09:06:39;;;;;;;6.10;4.17;;;3.70;70.70;;;7.19;46.35;99415.81;5032836;28;20041;-45
2023/02/11 09:09:12;;;;;;;7.57;5.10;;;3.70;70.50;;;7.22;45.58;99425.34;5032920;28;20042;-50
2023/02/11 09:11:42;;;;;;;11.88;5.85;;;3.80;70.50;;;7.26;45.93;99416.25;5025442;28;20072;-45
2023/02/11 09:14:22;;;;;;;6.70;4.20;;;3.80;70.30;;;7.24;45.79;99411.06;5030989;28;20417;-50
2023/02/11 09:16:50;;;;;;;7.37;4.63;;;3.80;70.40;;;7.25;45.77;99415.44;5033203;28;20037;-45
2023/02/11 09:19:19;;;;;;;7.13;4.47;;;3.80;70.50;;;7.27;46.05;99405.56;5032605;28;20135;-47
2023/02/11 09:21:47;;;;;;;9.13;4.77;;;3.80;70.50;;;7.29;45.86;99410.78;5028613;28;20041;-45
2023/02/11 09:24:15;;;;;;;5.73;3.83;;;3.90;70.70;;;7.22;46.62;99415.59;5032062;28;20049;-49
2023/02/11 09:26:43;;;;;;;7.77;4.40;;;3.90;70.80;;;7.26;45.77;99408.31;5032494;28;20045;-47
2023/02/11 09:29:10;;;;;;;7.10;4.10;;;3.90;71.00;;;7.30;46.19;99401.88;5031524;28;20052;-46
2023/02/11 09:31:38;;;;;;;9.13;4.43;;;3.90;71.10;;;7.35;46.56;99407.75;5031071;28;20060;-46
2023/02/11 09:34:06;;;;;;;7.50;4.47;;;4.00;71.20;;;7.33;46.35;99399.03;5031471;28;20504;-46
2023/02/11 09:36:37;;;;;;;7.10;4.23;;;4.10;71.10;;;7.38;46.71;99402.22;5032357;28;20484;-46
2023/02/11 09:39:12;;;;;;;6.53;4.43;;;4.10;71.00;;;7.43;46.34;99404.59;5032358;28;20038;-46
2023/02/11 09:41:57;;;;;;;10.83;4.40;;;4.10;71.10;;;7.49;46.21;99417.44;5024999;28;20053;-44
2023/02/11 09:44:33;;;;;;;8.23;4.93;;;4.20;71.10;;;7.53;45.87;99416.31;5031886;28;20049;-46
2023/02/11 09:47:24;;;;;;;7.03;4.57;;;4.20;71.20;;;7.55;46.36;99426.81;5032117;28;20056;-46
2023/02/11 09:50:04;;;;;;;9.17;4.93;;;4.20;71.40;;;7.52;46.62;99427.00;5025278;28;20045;-47
2023/02/11 09:52:57;;;;;;;10.63;4.87;;;4.20;71.80;;;7.55;46.37;99430.31;5030573;28;20045;-46
2023/02/11 09:55:42;;;;;;;6.77;4.47;;;4.30;71.70;;;7.62;46.68;99441.38;5025362;28;20046;-45
2023/02/11 09:58:29;;;;;;;7.47;4.33;;;4.40;71.50;;;7.67;46.74;99447.22;5030511;28;20045;-48
2023/02/11 10:01:05;;;;;;;7.30;4.30;;;4.50;71.80;;;7.65;47.26;99438.53;5030808;28;20042;-45
2023/02/11 10:03:55;;;;;;;9.50;6.37;;;4.50;72.10;;;7.68;47.40;99441.00;5030608;28;20501;-46
2023/02/11 10:06:54;;;;;;;9.67;5.23;;;4.60;72.00;;;7.55;47.42;99448.03;5031656;28;20057;-45
2023/02/11 10:09:49;;;;;;;8.70;5.93;;;4.60;71.80;;;7.66;47.44;99446.38;5031652;28;20425;-45
2023/02/11 10:12:56;;;;;;;8.80;6.53;;;4.70;71.90;;;7.55;47.94;99443.56;5031419;28;20045;-46
2023/02/11 10:16:01;;;;;;;14.60;6.40;;;4.60;73.40;;;7.55;48.78;99461.28;5031546;28;20050;-47
2023/02/11 10:19:12;;;;;;;10.10;6.40;;;4.70;73.00;;;7.45;48.85;99456.56;5030229;28;20501;-46
2023/02/11 10:21:59;;;;;;;9.73;7.10;;;4.70;73.40;;;7.56;48.34;99447.94;5024376;28;20042;-44
2023/02/11 10:24:27;;;;;;;13.27;7.70;;;4.80;72.70;;;7.44;48.53;99465.47;5023475;28;20049;-42
2023/02/11 10:26:55;;;;;;;14.33;8.43;;;4.70;72.30;;;7.65;47.80;99457.91;5018889;28;20488;-46
2023/02/11 10:29:42;;;;;;;12.60;7.10;;;4.70;72.50;;;7.78;47.67;99452.69;5023735;28;20053;-46
2023/02/11 10:32:47;;;;;;;12.20;7.13;;;4.80;72.50;;;7.91;47.39;99446.56;5026498;28;20056;-45
2023/02/11 10:35:20;;;;;;;13.20;7.47;;;4.80;72.30;;;7.90;47.57;99451.03;5020375;28;20053;-45
2023/02/11 10:37:48;;;;;;;13.32;7.38;;;4.80;72.40;;;7.94;47.57;99457.00;5030909;28;20048;-47
2023/02/11 10:40:21;;;;;;;10.57;7.43;;;4.80;71.90;;;7.96;47.88;99447.97;5030950;28;20044;-47
2023/02/11 10:42:58;;;;;;;10.45;7.43;;;4.90;72.70;;;7.89;47.98;99436.09;5018379;28;20132;-46
2023/02/11 10:45:52;;;;;;;11.67;6.47;;;4.90;72.70;;;7.98;47.85;99442.56;5028350;28;20405;-47
2023/02/11 10:48:52;;;;;;;10.35;6.68;;;4.90;73.60;;;7.96;47.97;99434.72;5030990;28;20072;-46
2023/02/11 10:51:32;;;;;;;13.43;7.73;;;5.10;73.50;;;8.06;48.10;99427.00;5029757;28;20052;-45
2023/02/11 10:54:07;;;;;;;9.80;6.10;;;5.20;73.20;;;7.89;49.08;99414.88;5030348;28;20068;-45
2023/02/11 10:56:51;;;;;;;9.90;6.07;;;5.30;73.20;;;8.01;48.31;99414.06;5030746;28;20216;-47
2023/02/11 10:59:39;;;;;;;19.57;7.87;;;5.30;72.80;;;8.13;48.63;99401.78;5030595;28;20417;-45
2023/02/11 11:02:30;;;;;;;13.13;7.97;;;5.30;73.20;;;8.31;48.20;99399.69;5030816;28;20516;-43